sensor_id;sensor_type;location;lat;lon;timestamp;P1;durP1;ratioP1;P2;durP2;ratioP2
59728;SDS011;45588;51.598;5.618;2023-05-10T00:01:49;14.05;;;8.52;;
59728;SDS011;45588;51.598;5.618;2023-05-10T00:04:15;17.88;;;14.65;;
59728;SDS011;45588;51.598;5.618;2023-05-10T00:06:40;21.77;;;18.38;;
59728;SDS011;45588;51.598;5.618;2023-05-10T00:09:05;17.03;;;10.03;;
59728;SDS011;45588;51.598;5.618;2023-05-10T00:11:30;18.88;;;9.38;;
59728;SDS011;45588;51.598;5.618;2023-05-10T00:13:55;19.33;;;9.98;;
59728;SDS011;45588;51.598;5.618;2023-05-10T00:16:21;16.57;;;9.97;;
59728;SDS011;45588;51.598;5.618;2023-05-10T00:18:46;22.50;;;15.93;;
59728;SDS011;45588;51.598;5.618;2023-05-10T00:21:11;21.63;;;15.83;;
59728;SDS011;45588;51.598;5.618;2023-05-10T00:23:36;24.35;;;13.43;;
59728;SDS011;45588;51.598;5.618;2023-05-10T00:26:02;27.23;;;17.98;;
59728;SDS011;45588;51.598;5.618;2023-05-10T00:28:27;21.90;;;12.47;;
59728;SDS011;45588;51.598;5.618;2023-05-10T00:30:53;30.13;;;22.77;;
59728;SDS011;45588;51.598;5.618;2023-05-10T00:33:18;28.25;;;18.40;;
59728;SDS011;45588;51.598;5.618;2023-05-10T00:35:44;37.40;;;27.55;;
59728;SDS011;45588;51.598;5.618;2023-05-10T00:38:09;28.92;;;14.32;;
59728;SDS011;45588;51.598;5.618;2023-05-10T00:40:35;27.47;;;14.60;;
59728;SDS011;45588;51.598;5.618;2023-05-10T00:43:00;28.95;;;13.65;;
59728;SDS011;45588;51.598;5.618;2023-05-10T00:45:26;32.25;;;15.68;;
59728;SDS011;45588;51.598;5.618;2023-05-10T00:47:52;31.27;;;15.52;;
59728;SDS011;45588;51.598;5.618;2023-05-10T00:50:20;51.15;;;35.15;;
59728;SDS011;45588;51.598;5.618;2023-05-10T00:52:45;45.88;;;33.30;;
59728;SDS011;45588;51.598;5.618;2023-05-10T00:55:10;37.35;;;16.20;;
59728;SDS011;45588;51.598;5.618;2023-05-10T00:57:36;31.92;;;14.85;;
59728;SDS011;45588;51.598;5.618;2023-05-10T01:00:01;51.72;;;31.05;;
59728;SDS011;45588;51.598;5.618;2023-05-10T01:02:27;36.58;;;17.40;;
59728;SDS011;45588;51.598;5.618;2023-05-10T01:04:53;36.22;;;17.08;;
59728;SDS011;45588;51.598;5.618;2023-05-10T01:07:19;39.90;;;18.08;;
59728;SDS011;45588;51.598;5.618;2023-05-10T01:09:44;58.73;;;32.73;;
59728;SDS011;45588;51.598;5.618;2023-05-10T01:12:09;34.42;;;16.35;;
59728;SDS011;45588;51.598;5.618;2023-05-10T01:14:34;64.20;;;40.60;;
59728;SDS011;45588;51.598;5.618;2023-05-10T01:17:01;48.70;;;19.70;;
59728;SDS011;45588;51.598;5.618;2023-05-10T01:19:26;37.95;;;17.45;;
59728;SDS011;45588;51.598;5.618;2023-05-10T01:22:05;42.63;;;19.38;;
59728;SDS011;45588;51.598;5.618;2023-05-10T01:34:25;48.47;;;20.08;;
59728;SDS011;45588;51.598;5.618;2023-05-10T01:36:58;46.80;;;19.48;;
59728;SDS011;45588;51.598;5.618;2023-05-10T01:42:10;60.17;;;38.40;;
59728;SDS011;45588;51.598;5.618;2023-05-10T01:47:05;47.90;;;21.80;;
59728;SDS011;45588;51.598;5.618;2023-05-10T01:49:31;43.38;;;21.05;;
59728;SDS011;45588;51.598;5.618;2023-05-10T01:52:04;45.83;;;20.73;;
59728;SDS011;45588;51.598;5.618;2023-05-10T01:54:31;44.50;;;20.10;;
59728;SDS011;45588;51.598;5.618;2023-05-10T01:57:05;74.18;;;47.00;;
59728;SDS011;45588;51.598;5.618;2023-05-10T01:59:31;54.88;;;30.15;;
59728;SDS011;45588;51.598;5.618;2023-05-10T02:02:01;50.58;;;20.95;;
59728;SDS011;45588;51.598;5.618;2023-05-10T02:04:27;55.22;;;24.15;;
59728;SDS011;45588;51.598;5.618;2023-05-10T02:06:52;56.83;;;22.63;;
59728;SDS011;45588;51.598;5.618;2023-05-10T02:09:18;102.63;;;57.25;;
59728;SDS011;45588;51.598;5.618;2023-05-10T02:11:44;94.13;;;43.67;;
59728;SDS011;45588;51.598;5.618;2023-05-10T02:14:10;82.20;;;29.85;;
59728;SDS011;45588;51.598;5.618;2023-05-10T02:16:36;87.57;;;31.52;;
59728;SDS011;45588;51.598;5.618;2023-05-10T02:19:02;78.43;;;30.45;;
59728;SDS011;45588;51.598;5.618;2023-05-10T02:21:28;131.10;;;68.35;;
59728;SDS011;45588;51.598;5.618;2023-05-10T02:23:54;91.05;;;32.25;;
59728;SDS011;45588;51.598;5.618;2023-05-10T02:26:20;138.32;;;76.20;;
59728;SDS011;45588;51.598;5.618;2023-05-10T02:28:47;95.32;;;33.95;;
59728;SDS011;45588;51.598;5.618;2023-05-10T02:31:12;96.28;;;32.75;;
59728;SDS011;45588;51.598;5.618;2023-05-10T02:33:38;91.55;;;34.05;;
59728;SDS011;45588;51.598;5.618;2023-05-10T02:36:05;93.45;;;34.03;;
59728;SDS011;45588;51.598;5.618;2023-05-10T02:38:31;146.73;;;79.45;;
59728;SDS011;45588;51.598;5.618;2023-05-10T02:40:58;141.82;;;78.90;;
59728;SDS011;45588;51.598;5.618;2023-05-10T02:43:24;113.50;;;47.63;;
59728;SDS011;45588;51.598;5.618;2023-05-10T02:45:49;115.10;;;49.15;;
59728;SDS011;45588;51.598;5.618;2023-05-10T02:48:15;102.97;;;44.72;;
59728;SDS011;45588;51.598;5.618;2023-05-10T02:50:41;95.90;;;37.50;;
59728;SDS011;45588;51.598;5.618;2023-05-10T02:53:11;95.00;;;36.78;;
59728;SDS011;45588;51.598;5.618;2023-05-10T02:58:04;99.93;;;38.37;;
59728;SDS011;45588;51.598;5.618;2023-05-10T03:00:29;128.93;;;81.43;;
59728;SDS011;45588;51.598;5.618;2023-05-10T03:02:55;92.57;;;37.40;;
59728;SDS011;45588;51.598;5.618;2023-05-10T03:05:20;99.13;;;48.95;;
59728;SDS011;45588;51.598;5.618;2023-05-10T03:07:45;87.70;;;36.33;;
59728;SDS011;45588;51.598;5.618;2023-05-10T03:10:11;90.88;;;34.17;;
59728;SDS011;45588;51.598;5.618;2023-05-10T03:12:41;128.00;;;79.45;;
59728;SDS011;45588;51.598;5.618;2023-05-10T03:15:19;130.70;;;80.85;;
59728;SDS011;45588;51.598;5.618;2023-05-10T03:20:12;91.95;;;37.22;;
59728;SDS011;45588;51.598;5.618;2023-05-10T03:22:44;92.80;;;37.28;;
59728;SDS011;45588;51.598;5.618;2023-05-10T03:25:10;84.65;;;34.42;;
59728;SDS011;45588;51.598;5.618;2023-05-10T03:27:36;129.50;;;81.93;;
59728;SDS011;45588;51.598;5.618;2023-05-10T03:30:02;106.30;;;38.13;;
59728;SDS011;45588;51.598;5.618;2023-05-10T03:32:28;97.50;;;38.58;;
59728;SDS011;45588;51.598;5.618;2023-05-10T03:34:54;85.35;;;35.15;;
59728;SDS011;45588;51.598;5.618;2023-05-10T03:37:19;134.88;;;79.40;;
59728;SDS011;45588;51.598;5.618;2023-05-10T03:39:44;141.52;;;86.18;;
59728;SDS011;45588;51.598;5.618;2023-05-10T03:42:09;109.73;;;62.10;;
59728;SDS011;45588;51.598;5.618;2023-05-10T03:44:36;96.82;;;37.00;;
59728;SDS011;45588;51.598;5.618;2023-05-10T03:47:02;93.25;;;37.65;;
59728;SDS011;45588;51.598;5.618;2023-05-10T03:49:27;106.90;;;54.05;;
59728;SDS011;45588;51.598;5.618;2023-05-10T03:51:52;120.30;;;65.47;;
59728;SDS011;45588;51.598;5.618;2023-05-10T03:54:17;100.72;;;40.22;;
59728;SDS011;45588;51.598;5.618;2023-05-10T03:56:42;95.90;;;37.78;;
59728;SDS011;45588;51.598;5.618;2023-05-10T03:59:08;144.33;;;89.97;;
59728;SDS011;45588;51.598;5.618;2023-05-10T04:01:34;99.55;;;39.88;;
59728;SDS011;45588;51.598;5.618;2023-05-10T04:03:59;144.35;;;89.50;;
59728;SDS011;45588;51.598;5.618;2023-05-10T04:06:24;106.85;;;41.63;;
59728;SDS011;45588;51.598;5.618;2023-05-10T04:08:49;103.13;;;37.63;;
59728;SDS011;45588;51.598;5.618;2023-05-10T04:11:15;124.15;;;66.13;;
59728;SDS011;45588;51.598;5.618;2023-05-10T04:13:40;94.57;;;38.40;;
59728;SDS011;45588;51.598;5.618;2023-05-10T04:16:05;96.43;;;39.13;;
59728;SDS011;45588;51.598;5.618;2023-05-10T04:18:30;100.85;;;41.88;;
59728;SDS011;45588;51.598;5.618;2023-05-10T04:20:56;147.02;;;90.20;;
59728;SDS011;45588;51.598;5.618;2023-05-10T04:23:21;124.07;;;64.15;;
59728;SDS011;45588;51.598;5.618;2023-05-10T04:25:47;109.70;;;53.57;;
59728;SDS011;45588;51.598;5.618;2023-05-10T04:28:12;101.15;;;40.13;;
59728;SDS011;45588;51.598;5.618;2023-05-10T04:30:37;136.40;;;87.07;;
59728;SDS011;45588;51.598;5.618;2023-05-10T04:33:03;111.47;;;56.20;;
59728;SDS011;45588;51.598;5.618;2023-05-10T04:35:28;96.53;;;49.97;;
59728;SDS011;45588;51.598;5.618;2023-05-10T04:37:53;90.50;;;35.47;;
59728;SDS011;45588;51.598;5.618;2023-05-10T04:40:19;110.93;;;64.97;;
59728;SDS011;45588;51.598;5.618;2023-05-10T04:42:45;81.10;;;31.02;;
59728;SDS011;45588;51.598;5.618;2023-05-10T04:45:10;81.15;;;30.13;;
59728;SDS011;45588;51.598;5.618;2023-05-10T04:47:35;96.90;;;48.15;;
59728;SDS011;45588;51.598;5.618;2023-05-10T04:50:02;86.65;;;33.15;;
59728;SDS011;45588;51.598;5.618;2023-05-10T04:52:27;85.88;;;32.85;;
59728;SDS011;45588;51.598;5.618;2023-05-10T04:54:52;103.53;;;64.30;;
59728;SDS011;45588;51.598;5.618;2023-05-10T04:57:17;107.82;;;63.70;;
59728;SDS011;45588;51.598;5.618;2023-05-10T04:59:42;98.40;;;51.53;;
59728;SDS011;45588;51.598;5.618;2023-05-10T05:02:07;74.70;;;32.43;;
59728;SDS011;45588;51.598;5.618;2023-05-10T05:04:33;73.83;;;27.73;;
59728;SDS011;45588;51.598;5.618;2023-05-10T05:06:58;63.67;;;26.65;;
59728;SDS011;45588;51.598;5.618;2023-05-10T05:09:23;74.60;;;36.13;;
59728;SDS011;45588;51.598;5.618;2023-05-10T05:11:48;83.60;;;53.00;;
59728;SDS011;45588;51.598;5.618;2023-05-10T05:14:13;68.67;;;37.57;;
59728;SDS011;45588;51.598;5.618;2023-05-10T05:16:39;64.47;;;36.20;;
59728;SDS011;45588;51.598;5.618;2023-05-10T05:19:04;59.07;;;24.93;;
59728;SDS011;45588;51.598;5.618;2023-05-10T05:21:29;59.43;;;25.77;;
59728;SDS011;45588;51.598;5.618;2023-05-10T05:23:54;79.63;;;53.05;;
59728;SDS011;45588;51.598;5.618;2023-05-10T05:26:19;63.63;;;26.52;;
59728;SDS011;45588;51.598;5.618;2023-05-10T05:28:45;60.42;;;24.58;;
59728;SDS011;45588;51.598;5.618;2023-05-10T05:31:10;71.28;;;46.05;;
59728;SDS011;45588;51.598;5.618;2023-05-10T05:33:35;58.03;;;23.88;;
59728;SDS011;45588;51.598;5.618;2023-05-10T05:36:01;71.85;;;50.50;;
59728;SDS011;45588;51.598;5.618;2023-05-10T05:38:26;54.13;;;24.30;;
59728;SDS011;45588;51.598;5.618;2023-05-10T05:40:51;58.53;;;26.13;;
59728;SDS011;45588;51.598;5.618;2023-05-10T05:43:17;69.80;;;49.20;;
59728;SDS011;45588;51.598;5.618;2023-05-10T05:45:42;55.80;;;24.60;;
59728;SDS011;45588;51.598;5.618;2023-05-10T05:48:07;59.00;;;26.30;;
59728;SDS011;45588;51.598;5.618;2023-05-10T05:50:32;67.23;;;49.77;;
59728;SDS011;45588;51.598;5.618;2023-05-10T05:52:57;68.80;;;44.90;;
59728;SDS011;45588;51.598;5.618;2023-05-10T05:55:22;57.70;;;24.40;;
59728;SDS011;45588;51.598;5.618;2023-05-10T05:57:49;56.67;;;25.38;;
59728;SDS011;45588;51.598;5.618;2023-05-10T06:00:14;57.93;;;24.60;;
59728;SDS011;45588;51.598;5.618;2023-05-10T06:02:39;45.45;;;21.92;;
59728;SDS011;45588;51.598;5.618;2023-05-10T06:05:04;53.03;;;36.60;;
59728;SDS011;45588;51.598;5.618;2023-05-10T06:07:30;49.47;;;23.30;;
59728;SDS011;45588;51.598;5.618;2023-05-10T06:09:55;50.10;;;23.73;;
59728;SDS011;45588;51.598;5.618;2023-05-10T06:12:20;61.25;;;46.50;;
59728;SDS011;45588;51.598;5.618;2023-05-10T06:14:45;45.92;;;21.98;;
59728;SDS011;45588;51.598;5.618;2023-05-10T06:17:11;50.53;;;21.98;;
59728;SDS011;45588;51.598;5.618;2023-05-10T06:19:36;49.15;;;22.20;;
59728;SDS011;45588;51.598;5.618;2023-05-10T06:22:01;55.38;;;42.22;;
59728;SDS011;45588;51.598;5.618;2023-05-10T06:24:27;60.53;;;43.85;;
59728;SDS011;45588;51.598;5.618;2023-05-10T06:26:52;50.45;;;24.45;;
59728;SDS011;45588;51.598;5.618;2023-05-10T06:29:17;53.07;;;42.73;;
59728;SDS011;45588;51.598;5.618;2023-05-10T06:31:42;48.83;;;30.80;;
59728;SDS011;45588;51.598;5.618;2023-05-10T06:34:07;49.27;;;29.93;;
59728;SDS011;45588;51.598;5.618;2023-05-10T06:36:33;43.72;;;21.70;;
59728;SDS011;45588;51.598;5.618;2023-05-10T06:38:58;50.72;;;35.58;;
59728;SDS011;45588;51.598;5.618;2023-05-10T06:41:23;48.27;;;38.53;;
59728;SDS011;45588;51.598;5.618;2023-05-10T06:43:49;48.60;;;33.72;;
59728;SDS011;45588;51.598;5.618;2023-05-10T06:46:14;42.83;;;21.20;;
59728;SDS011;45588;51.598;5.618;2023-05-10T06:48:39;51.28;;;39.67;;
59728;SDS011;45588;51.598;5.618;2023-05-10T06:51:04;50.80;;;35.50;;
59728;SDS011;45588;51.598;5.618;2023-05-10T06:53:30;39.67;;;21.23;;
59728;SDS011;45588;51.598;5.618;2023-05-10T06:55:55;45.53;;;20.70;;
59728;SDS011;45588;51.598;5.618;2023-05-10T06:58:20;54.80;;;40.97;;
59728;SDS011;45588;51.598;5.618;2023-05-10T07:00:45;53.57;;;32.67;;
59728;SDS011;45588;51.598;5.618;2023-05-10T07:03:11;54.10;;;32.20;;
59728;SDS011;45588;51.598;5.618;2023-05-10T07:05:37;50.30;;;23.60;;
59728;SDS011;45588;51.598;5.618;2023-05-10T07:08:02;59.07;;;44.17;;
59728;SDS011;45588;51.598;5.618;2023-05-10T07:10:27;58.47;;;43.50;;
59728;SDS011;45588;51.598;5.618;2023-05-10T07:12:52;43.35;;;21.13;;
59728;SDS011;45588;51.598;5.618;2023-05-10T07:15:18;51.67;;;23.90;;
59728;SDS011;45588;51.598;5.618;2023-05-10T07:17:43;52.42;;;24.33;;
59728;SDS011;45588;51.598;5.618;2023-05-10T07:20:08;45.30;;;22.37;;
59728;SDS011;45588;51.598;5.618;2023-05-10T07:22:33;45.53;;;23.55;;
59728;SDS011;45588;51.598;5.618;2023-05-10T07:24:58;56.17;;;38.30;;
59728;SDS011;45588;51.598;5.618;2023-05-10T07:27:24;58.57;;;42.87;;
59728;SDS011;45588;51.598;5.618;2023-05-10T07:29:49;51.05;;;31.02;;
59728;SDS011;45588;51.598;5.618;2023-05-10T07:32:14;59.53;;;44.20;;
59728;SDS011;45588;51.598;5.618;2023-05-10T07:34:39;53.77;;;30.77;;
59728;SDS011;45588;51.598;5.618;2023-05-10T07:37:04;52.70;;;23.27;;
59728;SDS011;45588;51.598;5.618;2023-05-10T07:39:31;57.90;;;38.72;;
59728;SDS011;45588;51.598;5.618;2023-05-10T07:41:56;51.17;;;33.73;;
59728;SDS011;45588;51.598;5.618;2023-05-10T07:44:21;64.13;;;47.53;;
59728;SDS011;45588;51.598;5.618;2023-05-10T07:46:47;56.60;;;33.53;;
59728;SDS011;45588;51.598;5.618;2023-05-10T07:49:13;64.47;;;44.80;;
59728;SDS011;45588;51.598;5.618;2023-05-10T07:51:38;65.43;;;43.63;;
59728;SDS011;45588;51.598;5.618;2023-05-10T07:54:03;48.60;;;25.63;;
59728;SDS011;45588;51.598;5.618;2023-05-10T07:56:29;53.08;;;26.02;;
59728;SDS011;45588;51.598;5.618;2023-05-10T07:58:56;45.33;;;24.10;;
59728;SDS011;45588;51.598;5.618;2023-05-10T08:01:22;66.78;;;49.90;;
59728;SDS011;45588;51.598;5.618;2023-05-10T08:03:48;63.28;;;41.53;;
59728;SDS011;45588;51.598;5.618;2023-05-10T08:06:14;65.05;;;48.00;;
59728;SDS011;45588;51.598;5.618;2023-05-10T08:08:39;67.15;;;50.03;;
59728;SDS011;45588;51.598;5.618;2023-05-10T08:11:04;50.28;;;24.27;;
59728;SDS011;45588;51.598;5.618;2023-05-10T08:13:30;55.45;;;25.52;;
59728;SDS011;45588;51.598;5.618;2023-05-10T08:15:56;65.65;;;49.28;;
59728;SDS011;45588;51.598;5.618;2023-05-10T08:18:21;44.30;;;23.40;;
59728;SDS011;45588;51.598;5.618;2023-05-10T08:20:46;54.33;;;25.50;;
59728;SDS011;45588;51.598;5.618;2023-05-10T08:23:12;56.13;;;44.60;;
59728;SDS011;45588;51.598;5.618;2023-05-10T08:25:38;54.50;;;43.35;;
59728;SDS011;45588;51.598;5.618;2023-05-10T08:28:03;50.40;;;24.17;;
59728;SDS011;45588;51.598;5.618;2023-05-10T08:30:28;44.60;;;21.98;;
59728;SDS011;45588;51.598;5.618;2023-05-10T08:32:53;45.93;;;22.17;;
59728;SDS011;45588;51.598;5.618;2023-05-10T08:35:18;44.40;;;21.97;;
59728;SDS011;45588;51.598;5.618;2023-05-10T08:37:43;45.10;;;37.37;;
59728;SDS011;45588;51.598;5.618;2023-05-10T08:40:09;33.13;;;23.33;;
59728;SDS011;45588;51.598;5.618;2023-05-10T08:42:36;42.45;;;35.85;;
59728;SDS011;45588;51.598;5.618;2023-05-10T08:45:05;40.35;;;35.00;;
59728;SDS011;45588;51.598;5.618;2023-05-10T08:47:31;39.80;;;29.85;;
59728;SDS011;45588;51.598;5.618;2023-05-10T08:49:56;37.40;;;20.02;;
59728;SDS011;45588;51.598;5.618;2023-05-10T08:52:22;36.78;;;25.75;;
59728;SDS011;45588;51.598;5.618;2023-05-10T08:54:48;35.42;;;16.23;;
59728;SDS011;45588;51.598;5.618;2023-05-10T08:57:13;35.42;;;29.08;;
59728;SDS011;45588;51.598;5.618;2023-05-10T08:59:39;33.22;;;29.27;;
59728;SDS011;45588;51.598;5.618;2023-05-10T09:02:04;35.03;;;23.95;;
59728;SDS011;45588;51.598;5.618;2023-05-10T09:04:30;28.58;;;22.23;;
59728;SDS011;45588;51.598;5.618;2023-05-10T09:06:55;34.35;;;29.15;;
59728;SDS011;45588;51.598;5.618;2023-05-10T09:09:21;25.15;;;19.17;;
59728;SDS011;45588;51.598;5.618;2023-05-10T09:11:46;28.70;;;16.45;;
59728;SDS011;45588;51.598;5.618;2023-05-10T09:14:12;33.55;;;27.58;;
59728;SDS011;45588;51.598;5.618;2023-05-10T09:16:37;28.90;;;25.90;;
59728;SDS011;45588;51.598;5.618;2023-05-10T09:19:02;28.92;;;24.70;;
59728;SDS011;45588;51.598;5.618;2023-05-10T09:21:27;29.13;;;24.77;;
59728;SDS011;45588;51.598;5.618;2023-05-10T09:23:53;23.85;;;13.52;;
59728;SDS011;45588;51.598;5.618;2023-05-10T09:26:22;24.20;;;14.55;;
59728;SDS011;45588;51.598;5.618;2023-05-10T09:31:16;25.95;;;22.75;;
59728;SDS011;45588;51.598;5.618;2023-05-10T09:33:47;28.37;;;24.60;;
59728;SDS011;45588;51.598;5.618;2023-05-10T09:36:15;26.73;;;23.85;;
59728;SDS011;45588;51.598;5.618;2023-05-10T09:38:47;27.15;;;13.68;;
59728;SDS011;45588;51.598;5.618;2023-05-10T09:41:17;26.30;;;22.98;;
59728;SDS011;45588;51.598;5.618;2023-05-10T09:43:42;24.48;;;21.88;;
59728;SDS011;45588;51.598;5.618;2023-05-10T09:46:10;19.77;;;17.73;;
59728;SDS011;45588;51.598;5.618;2023-05-10T09:48:43;25.83;;;16.25;;
59728;SDS011;45588;51.598;5.618;2023-05-10T09:51:09;23.80;;;19.60;;
59728;SDS011;45588;51.598;5.618;2023-05-10T09:53:34;21.48;;;19.48;;
59728;SDS011;45588;51.598;5.618;2023-05-10T09:55:59;17.25;;;10.82;;
59728;SDS011;45588;51.598;5.618;2023-05-10T09:58:25;20.80;;;18.57;;
59728;SDS011;45588;51.598;5.618;2023-05-10T10:00:50;19.42;;;17.52;;
59728;SDS011;45588;51.598;5.618;2023-05-10T10:03:20;20.17;;;17.52;;
59728;SDS011;45588;51.598;5.618;2023-05-10T10:05:45;17.98;;;16.27;;
59728;SDS011;45588;51.598;5.618;2023-05-10T10:08:11;16.92;;;14.30;;
59728;SDS011;45588;51.598;5.618;2023-05-10T10:10:37;18.73;;;15.15;;
59728;SDS011;45588;51.598;5.618;2023-05-10T10:13:03;19.00;;;16.65;;
59728;SDS011;45588;51.598;5.618;2023-05-10T10:15:29;18.77;;;14.55;;
59728;SDS011;45588;51.598;5.618;2023-05-10T10:17:55;18.15;;;16.30;;
59728;SDS011;45588;51.598;5.618;2023-05-10T10:20:21;21.23;;;17.00;;
59728;SDS011;45588;51.598;5.618;2023-05-10T10:22:46;16.00;;;14.15;;
59728;SDS011;45588;51.598;5.618;2023-05-10T10:25:12;20.77;;;16.35;;
59728;SDS011;45588;51.598;5.618;2023-05-10T10:35:28;17.77;;;15.37;;
59728;SDS011;45588;51.598;5.618;2023-05-10T10:37:54;16.70;;;15.13;;
59728;SDS011;45588;51.598;5.618;2023-05-10T10:40:22;17.77;;;16.03;;
59728;SDS011;45588;51.598;5.618;2023-05-10T10:42:47;16.70;;;15.07;;
59728;SDS011;45588;51.598;5.618;2023-05-10T10:45:14;16.63;;;14.93;;
59728;SDS011;45588;51.598;5.618;2023-05-10T10:47:40;15.05;;;13.45;;
59728;SDS011;45588;51.598;5.618;2023-05-10T10:50:06;14.77;;;13.27;;
59728;SDS011;45588;51.598;5.618;2023-05-10T10:52:41;15.85;;;14.25;;
59728;SDS011;45588;51.598;5.618;2023-05-10T10:57:52;14.55;;;13.02;;
59728;SDS011;45588;51.598;5.618;2023-05-10T11:00:20;11.85;;;10.70;;
59728;SDS011;45588;51.598;5.618;2023-05-10T11:02:47;12.63;;;10.70;;
59728;SDS011;45588;51.598;5.618;2023-05-10T11:07:54;14.45;;;13.00;;
59728;SDS011;45588;51.598;5.618;2023-05-10T11:10:22;14.90;;;13.40;;
59728;SDS011;45588;51.598;5.618;2023-05-10T11:13:01;19.15;;;14.52;;
59728;SDS011;45588;51.598;5.618;2023-05-10T11:15:30;15.93;;;14.18;;
59728;SDS011;45588;51.598;5.618;2023-05-10T11:17:55;16.95;;;15.13;;
59728;SDS011;45588;51.598;5.618;2023-05-10T11:20:20;19.20;;;17.30;;
59728;SDS011;45588;51.598;5.618;2023-05-10T11:22:49;19.70;;;17.63;;
59728;SDS011;45588;51.598;5.618;2023-05-10T11:25:15;22.20;;;19.85;;
59728;SDS011;45588;51.598;5.618;2023-05-10T11:27:41;19.10;;;17.10;;
59728;SDS011;45588;51.598;5.618;2023-05-10T11:30:06;18.77;;;16.83;;
59728;SDS011;45588;51.598;5.618;2023-05-10T11:32:32;22.10;;;19.90;;
59728;SDS011;45588;51.598;5.618;2023-05-10T11:34:57;26.27;;;20.33;;
59728;SDS011;45588;51.598;5.618;2023-05-10T11:37:23;21.00;;;18.63;;
59728;SDS011;45588;51.598;5.618;2023-05-10T11:39:48;19.88;;;17.80;;
59728;SDS011;45588;51.598;5.618;2023-05-10T11:42:13;23.17;;;20.83;;
59728;SDS011;45588;51.598;5.618;2023-05-10T11:44:38;21.37;;;18.03;;
59728;SDS011;45588;51.598;5.618;2023-05-10T11:47:04;21.07;;;16.77;;
59728;SDS011;45588;51.598;5.618;2023-05-10T11:49:30;22.77;;;15.98;;
59728;SDS011;45588;51.598;5.618;2023-05-10T11:52:05;20.90;;;19.00;;
59728;SDS011;45588;51.598;5.618;2023-05-10T11:54:31;23.33;;;20.85;;
59728;SDS011;45588;51.598;5.618;2023-05-10T11:56:56;19.57;;;17.50;;
59728;SDS011;45588;51.598;5.618;2023-05-10T11:59:21;21.37;;;14.93;;
59728;SDS011;45588;51.598;5.618;2023-05-10T12:01:46;23.30;;;20.30;;
59728;SDS011;45588;51.598;5.618;2023-05-10T12:04:11;22.92;;;20.50;;
59728;SDS011;45588;51.598;5.618;2023-05-10T12:06:37;18.38;;;11.82;;
59728;SDS011;45588;51.598;5.618;2023-05-10T12:09:05;24.67;;;22.10;;
59728;SDS011;45588;51.598;5.618;2023-05-10T12:11:30;21.35;;;19.02;;
59728;SDS011;45588;51.598;5.618;2023-05-10T12:13:56;21.20;;;17.55;;
59728;SDS011;45588;51.598;5.618;2023-05-10T12:16:22;25.83;;;23.13;;
59728;SDS011;45588;51.598;5.618;2023-05-10T12:18:48;25.98;;;23.20;;
59728;SDS011;45588;51.598;5.618;2023-05-10T12:21:13;26.13;;;23.42;;
59728;SDS011;45588;51.598;5.618;2023-05-10T12:23:40;21.83;;;19.08;;
59728;SDS011;45588;51.598;5.618;2023-05-10T12:26:05;22.05;;;18.67;;
59728;SDS011;45588;51.598;5.618;2023-05-10T12:28:31;27.25;;;24.50;;
59728;SDS011;45588;51.598;5.618;2023-05-10T12:30:57;26.98;;;19.73;;
59728;SDS011;45588;51.598;5.618;2023-05-10T12:33:22;25.85;;;23.15;;
59728;SDS011;45588;51.598;5.618;2023-05-10T12:35:48;24.00;;;14.27;;
59728;SDS011;45588;51.598;5.618;2023-05-10T12:40:51;28.52;;;25.58;;
59728;SDS011;45588;51.598;5.618;2023-05-10T12:43:17;27.93;;;24.57;;
59728;SDS011;45588;51.598;5.618;2023-05-10T12:45:42;27.10;;;24.30;;
59728;SDS011;45588;51.598;5.618;2023-05-10T12:48:07;27.60;;;22.87;;
59728;SDS011;45588;51.598;5.618;2023-05-10T12:50:32;28.55;;;18.77;;
59728;SDS011;45588;51.598;5.618;2023-05-10T12:52:57;21.63;;;12.93;;
59728;SDS011;45588;51.598;5.618;2023-05-10T12:55:22;25.27;;;22.67;;
59728;SDS011;45588;51.598;5.618;2023-05-10T12:57:48;25.08;;;22.15;;
59728;SDS011;45588;51.598;5.618;2023-05-10T13:00:13;25.80;;;22.50;;
59728;SDS011;45588;51.598;5.618;2023-05-10T13:02:38;26.17;;;20.95;;
59728;SDS011;45588;51.598;5.618;2023-05-10T13:05:04;26.15;;;23.35;;
59728;SDS011;45588;51.598;5.618;2023-05-10T13:07:30;23.00;;;15.82;;
59728;SDS011;45588;51.598;5.618;2023-05-10T13:09:55;28.57;;;25.60;;
59728;SDS011;45588;51.598;5.618;2023-05-10T13:12:20;23.07;;;20.63;;
59728;SDS011;45588;51.598;5.618;2023-05-10T13:14:45;23.27;;;20.80;;
59728;SDS011;45588;51.598;5.618;2023-05-10T13:17:11;27.20;;;24.52;;
59728;SDS011;45588;51.598;5.618;2023-05-10T13:19:36;27.60;;;24.88;;
59728;SDS011;45588;51.598;5.618;2023-05-10T13:22:02;25.00;;;22.67;;
59728;SDS011;45588;51.598;5.618;2023-05-10T13:24:28;22.38;;;20.08;;
59728;SDS011;45588;51.598;5.618;2023-05-10T13:26:53;23.95;;;21.70;;
59728;SDS011;45588;51.598;5.618;2023-05-10T13:29:18;24.52;;;22.00;;
59728;SDS011;45588;51.598;5.618;2023-05-10T13:31:44;25.17;;;23.05;;
59728;SDS011;45588;51.598;5.618;2023-05-10T13:34:09;25.03;;;22.87;;
59728;SDS011;45588;51.598;5.618;2023-05-10T13:36:34;24.27;;;22.20;;
59728;SDS011;45588;51.598;5.618;2023-05-10T13:38:59;25.33;;;23.17;;
59728;SDS011;45588;51.598;5.618;2023-05-10T13:41:27;25.95;;;23.75;;
59728;SDS011;45588;51.598;5.618;2023-05-10T13:43:52;21.42;;;19.50;;
59728;SDS011;45588;51.598;5.618;2023-05-10T13:46:18;23.67;;;21.67;;
59728;SDS011;45588;51.598;5.618;2023-05-10T13:48:43;21.33;;;19.30;;
59728;SDS011;45588;51.598;5.618;2023-05-10T13:51:08;21.03;;;19.13;;
59728;SDS011;45588;51.598;5.618;2023-05-10T13:53:34;17.27;;;15.45;;
59728;SDS011;45588;51.598;5.618;2023-05-10T13:55:59;10.32;;;9.40;;
59728;SDS011;45588;51.598;5.618;2023-05-10T13:58:24;7.72;;;7.03;;
59728;SDS011;45588;51.598;5.618;2023-05-10T14:00:49;9.33;;;8.47;;
59728;SDS011;45588;51.598;5.618;2023-05-10T14:03:15;9.80;;;8.57;;
59728;SDS011;45588;51.598;5.618;2023-05-10T14:05:40;10.47;;;9.57;;
59728;SDS011;45588;51.598;5.618;2023-05-10T14:08:05;11.77;;;10.77;;
59728;SDS011;45588;51.598;5.618;2023-05-10T14:10:30;11.82;;;10.63;;
59728;SDS011;45588;51.598;5.618;2023-05-10T14:12:55;13.97;;;12.77;;
59728;SDS011;45588;51.598;5.618;2023-05-10T14:15:21;15.18;;;13.68;;
59728;SDS011;45588;51.598;5.618;2023-05-10T14:17:46;15.50;;;14.00;;
59728;SDS011;45588;51.598;5.618;2023-05-10T14:20:11;14.77;;;13.40;;
59728;SDS011;45588;51.598;5.618;2023-05-10T14:22:36;16.17;;;14.37;;
59728;SDS011;45588;51.598;5.618;2023-05-10T14:25:01;14.23;;;12.93;;
59728;SDS011;45588;51.598;5.618;2023-05-10T14:27:26;15.57;;;14.15;;
59728;SDS011;45588;51.598;5.618;2023-05-10T14:29:52;15.52;;;13.95;;
59728;SDS011;45588;51.598;5.618;2023-05-10T14:32:18;15.70;;;14.20;;
59728;SDS011;45588;51.598;5.618;2023-05-10T14:34:43;14.82;;;13.32;;
59728;SDS011;45588;51.598;5.618;2023-05-10T14:37:09;16.30;;;14.87;;
59728;SDS011;45588;51.598;5.618;2023-05-10T14:39:35;15.80;;;14.35;;
59728;SDS011;45588;51.598;5.618;2023-05-10T14:42:00;15.23;;;13.73;;
59728;SDS011;45588;51.598;5.618;2023-05-10T14:44:25;14.60;;;13.30;;
59728;SDS011;45588;51.598;5.618;2023-05-10T14:46:51;14.45;;;12.88;;
59728;SDS011;45588;51.598;5.618;2023-05-10T14:49:16;13.57;;;12.32;;
59728;SDS011;45588;51.598;5.618;2023-05-10T14:51:41;17.03;;;13.90;;